Time;durP1;ratioP1;P1;durP2;ratioP2;P2;SDS_P1;SDS_P2;PMS_P1;PMS_P2;Temp;Humidity;BMP_temperature;BMP_pressure;BME280_temperature;BME280_humidity;BME280_pressure;Samples;Min_cycle;Max_cycle;Signal;HPM_P1;HPM_P2
2021/08/29 00:01:36;;;;;;;7.90;4.20;;;17.30;73.40;;;;;;5041780;28;20242;-93
2021/08/29 00:04:02;;;;;;;8.70;4.90;;;17.30;73.60;;;;;;5055345;28;20201;-93
2021/08/29 00:06:27;;;;;;;6.40;4.50;;;17.20;73.60;;;;;;5058853;28;20192;-93
2021/08/29 00:08:53;;;;;;;7.63;4.33;;;17.20;73.70;;;;;;5060128;28;20192;-93
2021/08/29 00:11:19;;;;;;;12.53;4.20;;;17.10;74.00;;;;;;5054692;28;20238;-92
2021/08/29 00:13:44;;;;;;;11.63;4.20;;;17.00;74.20;;;;;;5039512;28;20566;-91
2021/08/29 00:16:10;;;;;;;8.43;5.00;;;17.20;74.20;;;;;;5039968;28;20304;-92
2021/08/29 00:18:36;;;;;;;8.97;4.90;;;17.30;74.10;;;;;;5039619;28;20177;-92
2021/08/29 00:21:02;;;;;;;5.17;3.90;;;17.30;73.80;;;;;;5040797;28;20189;-92
2021/08/29 00:23:28;;;;;;;5.23;3.27;;;17.30;73.50;;;;;;5043240;28;20462;-92
2021/08/29 00:25:55;;;;;;;10.50;4.47;;;17.40;73.30;;;;;;5046390;28;20703;-92
2021/08/29 00:28:21;;;;;;;14.13;4.38;;;17.40;74.20;;;;;;5047020;28;20485;-93
2021/08/29 00:30:47;;;;;;;7.50;4.00;;;17.50;73.20;;;;;;5047503;28;20181;-92
2021/08/29 00:33:12;;;;;;;7.43;4.17;;;17.50;73.00;;;;;;5047454;28;20201;-91
2021/08/29 00:35:38;;;;;;;6.23;4.30;;;17.40;73.00;;;;;;5040421;28;20213;-91
2021/08/29 00:38:04;;;;;;;9.07;3.77;;;17.50;73.10;;;;;;5039496;28;20177;-91
2021/08/29 00:40:30;;;;;;;7.47;4.05;;;17.50;73.10;;;;;;5040024;28;20278;-93
2021/08/29 00:42:56;;;;;;;12.20;5.43;;;17.50;73.10;;;;;;5043576;28;20648;-93
2021/08/29 00:45:23;;;;;;;9.77;3.90;;;17.50;73.10;;;;;;5040341;28;20424;-93
2021/08/29 00:47:49;;;;;;;6.90;4.28;;;17.50;73.20;;;;;;5039820;28;20454;-92
2021/08/29 00:50:16;;;;;;;9.93;4.95;;;17.50;73.10;;;;;;5039151;28;20184;-92
2021/08/29 00:52:42;;;;;;;12.82;4.90;;;17.60;73.10;;;;;;5040545;28;20209;-91
2021/08/29 00:55:11;;;;;;;7.32;4.45;;;17.60;72.80;;;;;;5038619;28;20243;-93
2021/08/29 00:57:41;;;;;;;6.07;4.10;;;17.60;72.70;;;;;;5040242;28;20184;-92
2021/08/29 01:00:09;;;;;;;8.00;4.78;;;17.50;73.10;;;;;;5041287;28;20246;-93
2021/08/29 01:02:34;;;;;;;13.68;3.60;;;17.70;73.00;;;;;;5039890;28;20189;-90
2021/08/29 01:05:09;;;;;;;8.77;4.60;;;17.50;73.00;;;;;;5039035;28;20181;-92
2021/08/29 01:07:43;;;;;;;7.47;3.92;;;17.50;73.40;;;;;;5038340;28;20976;-92
2021/08/29 01:10:14;;;;;;;10.55;4.43;;;17.50;73.60;;;;;;5045441;28;20173;-91
2021/08/29 01:12:46;;;;;;;10.43;4.35;;;17.40;73.70;;;;;;5044470;28;20214;-93
2021/08/29 01:15:14;;;;;;;12.55;4.75;;;17.50;73.70;;;;;;5060935;28;20181;-94
2021/08/29 01:17:45;;;;;;;10.38;3.75;;;17.60;73.40;;;;;;5059935;28;20173;-94
2021/08/29 01:20:50;;;;;;;7.97;3.55;;;17.60;73.10;;;;;;5039931;28;20193;-93
2021/08/29 01:23:19;;;;;;;7.90;3.60;;;17.60;72.90;;;;;;5052300;28;20201;-93
2021/08/29 01:25:54;;;;;;;7.57;4.00;;;17.40;73.30;;;;;;5048576;28;20187;-93
2021/08/29 01:28:27;;;;;;;8.52;4.45;;;17.40;73.70;;;;;;5027660;28;20179;-92
2021/08/29 01:30:54;;;;;;;8.02;4.18;;;17.40;73.80;;;;;;5041654;28;20177;-93
2021/08/29 01:33:20;;;;;;;13.90;4.82;;;17.30;74.00;;;;;;5039761;28;20562;-93
2021/08/29 01:35:47;;;;;;;9.43;4.03;;;17.30;74.20;;;;;;5040920;28;20609;-93
2021/08/29 01:38:13;;;;;;;9.88;4.13;;;17.40;74.40;;;;;;5038672;28;20173;-94
2021/08/29 01:40:39;;;;;;;5.82;3.83;;;17.40;74.10;;;;;;5039783;28;20185;-92
2021/08/29 01:43:05;;;;;;;9.10;4.82;;;17.50;74.00;;;;;;5037964;28;20193;-92
2021/08/29 01:45:48;;;;;;;9.27;4.55;;;17.40;74.00;;;;;;5037924;28;20533;-92
2021/08/29 01:48:14;;;;;;;6.43;4.03;;;17.40;74.10;;;;;;5038744;28;20165;-93
2021/08/29 01:50:41;;;;;;;10.00;4.30;;;17.50;74.10;;;;;;5037733;28;20200;-91
2021/08/29 01:53:07;;;;;;;10.68;4.60;;;17.30;74.30;;;;;;5038569;28;20428;-93
2021/08/29 01:55:33;;;;;;;7.57;3.70;;;17.40;74.50;;;;;;5037643;28;20269;-92
2021/08/29 01:57:58;;;;;;;8.13;3.83;;;17.30;74.70;;;;;;5037807;28;20200;-92
2021/08/29 02:00:24;;;;;;;7.63;3.17;;;17.30;74.80;;;;;;5039061;28;20611;-93
2021/08/29 02:02:50;;;;;;;10.63;4.45;;;17.50;75.00;;;;;;5042820;28;20201;-92
2021/08/29 02:05:16;;;;;;;11.23;3.77;;;17.40;74.80;;;;;;5054560;28;20204;-92
2021/08/29 02:07:49;;;;;;;13.77;4.57;;;17.60;74.60;;;;;;5053177;28;20177;-92
2021/08/29 02:10:17;;;;;;;9.18;4.00;;;17.50;74.30;;;;;;5054123;28;20850;-92
2021/08/29 02:13:02;;;;;;;5.47;3.38;;;17.50;74.10;;;;;;5054195;28;20193;-92
2021/08/29 02:15:38;;;;;;;8.68;3.63;;;17.60;74.00;;;;;;5054517;28;20169;-92
2021/08/29 02:18:09;;;;;;;3.92;3.50;;;17.40;74.00;;;;;;5054820;28;20169;-93
2021/08/29 02:20:37;;;;;;;6.97;3.60;;;17.40;74.30;;;;;;5055034;28;20185;-92
2021/08/29 02:23:03;;;;;;;7.10;3.47;;;17.30;74.50;;;;;;5056839;28;20216;-93
2021/08/29 02:25:46;;;;;;;;;;;;;;;;;;;;;
2021/08/29 02:28:20;;;;;;;4.03;3.72;;;17.40;74.80;;;;;;5072384;28;20207;-94
2021/08/29 02:30:46;;;;;;;12.65;3.83;;;17.40;75.00;;;;;;5059257;28;20192;-92
2021/08/29 02:33:12;;;;;;;12.13;4.20;;;17.50;75.00;;;;;;5058681;28;20212;-93
2021/08/29 02:35:41;;;;;;;10.97;4.60;;;17.40;74.80;;;;;;5059043;28;20228;-92
2021/08/29 02:38:07;;;;;;;7.30;3.70;;;17.50;74.80;;;;;;5059244;28;20416;-92
2021/08/29 02:40:37;;;;;;;5.20;3.47;;;17.50;74.70;;;;;;5058587;28;20245;-92
2021/08/29 02:43:03;;;;;;;6.78;3.63;;;17.50;74.70;;;;;;5059594;28;20240;-93
2021/08/29 02:45:29;;;;;;;6.70;4.32;;;17.30;75.00;;;;;;5042983;28;20204;-92
2021/08/29 02:47:55;;;;;;;9.55;4.88;;;17.20;75.40;;;;;;5059818;28;20188;-93
2021/08/29 02:50:22;;;;;;;5.40;4.25;;;17.30;75.90;;;;;;5059805;28;20177;-93
2021/08/29 02:52:49;;;;;;;6.78;3.47;;;17.30;75.60;;;;;;5059382;28;20200;-92
2021/08/29 02:55:17;;;;;;;6.75;3.75;;;17.30;75.70;;;;;;5059920;28;20189;-93
2021/08/29 02:57:46;;;;;;;4.68;3.95;;;17.40;75.20;;;;;;5060027;28;20169;-94
2021/08/29 03:00:13;;;;;;;8.35;3.80;;;17.30;75.30;;;;;;5059893;28;20181;-94
2021/08/29 03:02:41;;;;;;;12.35;3.78;;;17.40;75.10;;;;;;5059850;28;20193;-94
2021/08/29 03:05:07;;;;;;;9.68;4.22;;;17.40;75.10;;;;;;5038045;28;20284;-91
2021/08/29 03:07:33;;;;;;;8.27;4.13;;;17.40;75.00;;;;;;5044491;28;20625;-91
2021/08/29 03:09:59;;;;;;;7.43;3.80;;;17.40;74.80;;;;;;5036591;28;20280;-91
2021/08/29 03:12:25;;;;;;;9.27;5.13;;;17.40;74.70;;;;;;5036457;28;20849;-91
2021/08/29 03:14:51;;;;;;;12.02;4.07;;;17.40;74.70;;;;;;5036430;28;20594;-91
2021/08/29 03:17:18;;;;;;;5.68;3.47;;;17.30;75.20;;;;;;5036350;28;20623;-90
2021/08/29 03:19:45;;;;;;;10.27;4.13;;;17.30;75.30;;;;;;5040510;28;20672;-91
2021/08/29 03:23:15;;;;;;;7.80;4.15;;;17.30;75.20;;;;;;5046623;28;20264;-92
2021/08/29 03:25:42;;;;;;;17.55;5.03;;;17.20;75.40;;;;;;4997330;28;20170;-94
2021/08/29 03:28:08;;;;;;;7.07;4.03;;;17.20;75.50;;;;;;5057623;28;20335;-93
2021/08/29 03:30:36;;;;;;;8.27;4.63;;;17.20;75.60;;;;;;5046824;28;20265;-94
2021/08/29 03:33:02;;;;;;;9.02;4.45;;;17.10;75.80;;;;;;5037876;28;20211;-93
2021/08/29 03:35:29;;;;;;;8.90;3.73;;;17.10;76.00;;;;;;5036971;28;20177;-93
2021/08/29 03:37:56;;;;;;;8.13;4.10;;;17.20;75.80;;;;;;5037564;28;20511;-93
2021/08/29 03:40:22;;;;;;;9.45;4.20;;;17.20;76.00;;;;;;5037028;28;20181;-93
2021/08/29 03:42:56;;;;;;;7.00;4.68;;;17.20;75.80;;;;;;5037621;28;20225;-93
2021/08/29 03:45:38;;;;;;;9.60;4.28;;;17.10;76.00;;;;;;5061756;28;20225;-93
2021/08/29 03:48:05;;;;;;;10.85;4.55;;;17.00;76.10;;;;;;5051536;28;20192;-91
2021/08/29 03:50:31;;;;;;;4.57;3.70;;;17.10;76.40;;;;;;5058656;28;20172;-91
2021/08/29 03:52:57;;;;;;;7.80;4.95;;;17.00;76.50;;;;;;5046844;28;20562;-93
2021/08/29 03:55:23;;;;;;;11.20;5.73;;;17.20;76.30;;;;;;5035888;28;20276;-92
2021/08/29 03:57:50;;;;;;;6.75;3.35;;;17.20;76.20;;;;;;5036353;28;20423;-92
2021/08/29 04:00:16;;;;;;;6.88;3.72;;;17.20;76.10;;;;;;5036449;28;20189;-92
2021/08/29 04:02:42;;;;;;;7.78;3.47;;;17.20;75.90;;;;;;5038294;28;20204;-91
2021/08/29 04:05:10;;;;;;;11.65;4.00;;;17.30;75.70;;;;;;5036163;28;20180;-93
2021/08/29 04:07:37;;;;;;;6.40;3.72;;;17.20;75.50;;;;;;5037608;28;20212;-91
2021/08/29 04:10:04;;;;;;;12.55;4.30;;;17.30;75.60;;;;;;5039643;28;20181;-92
2021/08/29 04:12:30;;;;;;;6.38;3.95;;;17.20;75.60;;;;;;5038838;28;20300;-92
2021/08/29 04:14:59;;;;;;;14.27;4.85;;;17.40;75.40;;;;;;5059441;28;20174;-91
2021/08/29 04:17:25;;;;;;;4.78;3.70;;;17.30;75.30;;;;;;5059321;28;20201;-92
2021/08/29 04:19:54;;;;;;;9.52;4.57;;;17.30;75.20;;;;;;5053720;28;20209;-91
2021/08/29 04:22:20;;;;;;;9.45;4.30;;;17.40;75.20;;;;;;5039467;28;20200;-92
2021/08/29 04:24:46;;;;;;;11.90;3.93;;;17.40;74.90;;;;;;5045582;28;20169;-92
2021/08/29 04:27:12;;;;;;;15.37;4.50;;;17.60;74.50;;;;;;5048459;28;20949;-92
2021/08/29 04:29:38;;;;;;;10.45;4.63;;;17.60;74.00;;;;;;5056773;28;20412;-90
2021/08/29 04:32:04;;;;;;;6.53;4.37;;;17.70;73.70;;;;;;5062905;28;20189;-91
2021/08/29 04:34:30;;;;;;;5.35;3.33;;;17.70;73.70;;;;;;5062971;28;20498;-92
2021/08/29 04:36:56;;;;;;;10.00;4.00;;;17.60;73.60;;;;;;5063081;28;20205;-90
2021/08/29 04:39:21;;;;;;;11.20;4.47;;;17.60;73.50;;;;;;5063241;28;20236;-94
2021/08/29 04:41:47;;;;;;;9.50;4.10;;;17.60;73.80;;;;;;5062917;28;20169;-95
2021/08/29 04:44:14;;;;;;;8.70;4.33;;;17.60;73.80;;;;;;5062563;28;20241;-92
2021/08/29 04:46:40;;;;;;;6.25;4.72;;;17.50;73.90;;;;;;5062486;28;20443;-95
2021/08/29 04:49:06;;;;;;;12.30;4.80;;;17.40;74.10;;;;;;5046376;28;20161;-95
2021/08/29 04:51:31;;;;;;;9.37;4.10;;;17.60;74.30;;;;;;5062631;28;20440;-95
2021/08/29 04:53:57;;;;;;;8.67;4.30;;;17.60;73.70;;;;;;5062877;28;20195;-92
2021/08/29 04:56:23;;;;;;;5.93;3.57;;;17.70;73.50;;;;;;5062685;28;20212;-92
2021/08/29 04:58:49;;;;;;;5.50;4.20;;;17.50;73.60;;;;;;5062854;28;20223;-93
2021/08/29 05:01:17;;;;;;;6.18;4.15;;;17.40;73.80;;;;;;5053609;28;20169;-94
2021/08/29 05:03:42;;;;;;;11.50;4.63;;;17.50;73.80;;;;;;5052340;28;20291;-92
2021/08/29 05:06:08;;;;;;;6.60;4.03;;;17.50;73.70;;;;;;5049449;28;20188;-93
2021/08/29 05:08:34;;;;;;;6.73;4.47;;;17.50;73.70;;;;;;5041491;28;20185;-94
2021/08/29 05:10:59;;;;;;;6.30;3.83;;;17.50;73.80;;;;;;5039303;28;20192;-93
2021/08/29 05:13:25;;;;;;;5.00;3.83;;;17.60;73.70;;;;;;5040299;28;20569;-93
2021/08/29 05:15:51;;;;;;;9.23;3.47;;;17.50;73.60;;;;;;5040772;28;20204;-93
2021/08/29 05:18:17;;;;;;;7.90;4.20;;;17.50;73.70;;;;;;5040164;28;20181;-91
2021/08/29 05:20:42;;;;;;;7.33;4.90;;;17.50;73.70;;;;;;5038103;28;20443;-92
2021/08/29 05:23:08;;;;;;;4.87;3.23;;;17.40;73.70;;;;;;5038801;28;20196;-91
2021/08/29 05:25:34;;;;;;;8.90;4.50;;;17.40;73.50;;;;;;5038254;28;20595;-91
2021/08/29 05:27:59;;;;;;;14.40;4.33;;;17.40;73.50;;;;;;5057638;28;20260;-91
2021/08/29 05:30:25;;;;;;;13.20;4.30;;;17.40;73.70;;;;;;5038974;28;20516;-92
2021/08/29 05:32:51;;;;;;;4.17;3.60;;;17.50;73.50;;;;;;5038096;28;20197;-91
2021/08/29 05:35:17;;;;;;;5.37;3.30;;;17.70;72.80;;;;;;5038389;28;20188;-91
2021/08/29 05:37:43;;;;;;;12.88;4.60;;;17.50;72.70;;;;;;5038159;28;20247;-91
2021/08/29 05:40:09;;;;;;;10.90;4.97;;;17.60;72.40;;;;;;5038842;28;20180;-91
2021/08/29 05:42:35;;;;;;;6.05;4.32;;;17.60;72.40;;;;;;5038575;28;20193;-93
2021/08/29 05:45:01;;;;;;;5.33;3.67;;;17.60;72.50;;;;;;5041895;28;20185;-93
2021/08/29 05:47:27;;;;;;;7.97;3.97;;;17.70;72.50;;;;;;5042676;28;20440;-93
2021/08/29 05:49:52;;;;;;;7.70;4.37;;;17.70;72.40;;;;;;5040717;28;20481;-92
2021/08/29 05:52:19;;;;;;;8.13;4.10;;;17.70;72.20;;;;;;5040741;28;20449;-93
2021/08/29 05:54:48;;;;;;;9.23;4.10;;;17.70;72.10;;;;;;5041555;28;20570;-94
2021/08/29 05:57:14;;;;;;;8.07;3.35;;;17.80;71.90;;;;;;5043914;28;20745;-92
2021/08/29 05:59:40;;;;;;;9.17;4.43;;;17.70;72.00;;;;;;5041623;28;20272;-93
2021/08/29 06:02:06;;;;;;;8.80;4.67;;;17.60;72.40;;;;;;5042351;28;20197;-93
2021/08/29 06:04:32;;;;;;;8.80;4.30;;;17.50;72.80;;;;;;5041807;28;20185;-93
2021/08/29 06:06:58;;;;;;;5.80;4.43;;;17.60;72.80;;;;;;5040137;28;20183;-94
2021/08/29 06:09:24;;;;;;;8.57;4.32;;;17.60;73.10;;;;;;5040473;28;20174;-94
2021/08/29 06:11:55;;;;;;;9.00;4.90;;;17.60;73.30;;;;;;5042638;28;20189;-93
2021/08/29 06:14:23;;;;;;;5.68;4.10;;;17.60;73.30;;;;;;5044948;28;20589;-94
2021/08/29 06:16:49;;;;;;;5.45;3.78;;;17.80;73.20;;;;;;5040878;28;20220;-93
2021/08/29 06:19:15;;;;;;;7.30;4.10;;;17.80;73.10;;;;;;5037784;28;20256;-91
2021/08/29 06:21:40;;;;;;;6.23;3.63;;;17.90;73.00;;;;;;5036947;28;20209;-92
2021/08/29 06:24:06;;;;;;;7.10;3.67;;;17.80;73.00;;;;;;5036981;28;20212;-91
2021/08/29 06:26:41;;;;;;;6.90;3.80;;;18.10;73.20;;;;;;5042314;28;20181;-92
2021/08/29 06:29:07;;;;;;;4.13;3.35;;;17.90;72.90;;;;;;5042450;28;20208;-91
2021/08/29 06:31:34;;;;;;;6.20;3.73;;;18.10;72.70;;;;;;5038890;28;20243;-92
2021/08/29 06:34:00;;;;;;;10.30;3.88;;;18.10;72.80;;;;;;5045991;28;20280;-92
2021/08/29 06:36:26;;;;;;;7.47;3.90;;;18.10;72.80;;;;;;5042080;28;20342;-92
2021/08/29 06:38:51;;;;;;;5.20;3.83;;;18.10;73.00;;;;;;5040829;28;20227;-92
2021/08/29 06:41:17;;;;;;;3.80;3.10;;;18.30;72.70;;;;;;5039496;28;20242;-94
2021/08/29 06:43:43;;;;;;;4.47;3.23;;;18.20;72.80;;;;;;5028582;22;20495;-93
2021/08/29 06:46:10;;;;;;;8.67;3.20;;;18.10;73.20;;;;;;5013881;28;20476;-92
2021/08/29 06:48:39;;;;;;;9.65;3.67;;;18.20;72.90;;;;;;5015720;28;20576;-94
2021/08/29 06:51:05;;;;;;;9.20;3.55;;;18.30;72.90;;;;;;5015035;28;20186;-93
2021/08/29 06:53:31;;;;;;;8.60;3.43;;;18.30;73.00;;;;;;5017261;28;20344;-93
2021/08/29 06:56:03;;;;;;;8.57;3.57;;;18.50;72.70;;;;;;5016759;28;20468;-93
2021/08/29 06:58:29;;;;;;;4.75;3.20;;;18.50;72.30;;;;;;5019509;28;20209;-94
2021/08/29 07:00:54;;;;;;;8.80;4.60;;;18.50;72.30;;;;;;5019740;28;20185;-93
2021/08/29 07:03:20;;;;;;;7.10;3.50;;;18.50;72.40;;;;;;5014029;28;20753;-92
2021/08/29 07:05:46;;;;;;;4.50;2.90;;;18.70;72.20;;;;;;5015375;28;20421;-92
2021/08/29 07:08:11;;;;;;;10.97;4.53;;;18.60;72.00;;;;;;5018359;28;20273;-92
2021/08/29 07:10:37;;;;;;;5.90;3.27;;;18.70;72.10;;;;;;5020654;28;20597;-93
2021/08/29 07:13:03;;;;;;;7.00;3.43;;;18.80;71.80;;;;;;5018954;28;20214;-93
2021/08/29 07:15:35;;;;;;;5.10;3.03;;;18.80;71.60;;;;;;5016254;28;20182;-93
2021/08/29 07:18:01;;;;;;;8.63;3.47;;;18.90;71.60;;;;;;5020346;28;20420;-93
2021/08/29 07:20:27;;;;;;;10.40;3.37;;;18.90;71.20;;;;;;5018196;28;20183;-92
2021/08/29 07:22:52;;;;;;;6.50;3.30;;;18.80;71.10;;;;;;5018131;28;20541;-92
2021/08/29 07:25:18;;;;;;;5.20;3.30;;;18.80;71.30;;;;;;5017624;28;20916;-89
2021/08/29 07:27:44;;;;;;;5.93;3.30;;;18.90;71.40;;;;;;5015205;28;20626;-88
2021/08/29 07:30:10;;;;;;;5.23;2.70;;;19.00;71.00;;;;;;5020413;28;20430;-86
2021/08/29 07:32:36;;;;;;;4.75;2.67;;;18.90;71.20;;;;;;5029863;28;20261;-85
2021/08/29 07:35:03;;;;;;;8.00;4.20;;;19.00;71.10;;;;;;5035241;28;20224;-85
2021/08/29 07:37:29;;;;;;;6.10;3.20;;;19.10;70.60;;;;;;5014510;28;20199;-87
2021/08/29 07:41:47;;;;;;;13.02;2.85;;;19.00;70.00;;;;;;5075907;28;20563;-86
2021/08/29 07:44:13;;;;;;;8.63;4.10;;;18.90;70.50;;;;;;5079424;28;20226;-87
2021/08/29 07:46:39;;;;;;;15.10;3.23;;;19.00;71.20;;;;;;5076556;28;20176;-86
2021/08/29 07:49:04;;;;;;;7.50;3.30;;;19.00;71.10;;;;;;5077638;28;20271;-85
2021/08/29 07:51:30;;;;;;;9.53;3.43;;;19.20;71.00;;;;;;5082598;28;20310;-86
2021/08/29 07:53:56;;;;;;;8.77;3.23;;;19.30;71.40;;;;;;5085470;28;20639;-87
2021/08/29 07:56:22;;;;;;;12.83;3.20;;;19.40;69.80;;;;;;5088347;28;20249;-91
2021/08/29 07:58:47;;;;;;;5.10;3.57;;;19.20;69.10;;;;;;5090580;28;20207;-89
2021/08/29 08:01:13;;;;;;;9.73;3.50;;;19.00;69.90;;;;;;5090845;28;20203;-91
2021/08/29 08:03:39;;;;;;;6.57;2.90;;;18.90;70.20;;;;;;5092055;28;20272;-89
2021/08/29 08:06:07;;;;;;;8.33;3.40;;;19.10;69.30;;;;;;5084650;28;20173;-90
2021/08/29 08:09:31;;;;;;;;;;;;;;;;;;;;;
2021/08/29 08:11:23;;;;;;;5.55;2.63;;;19.40;68.80;;;;;;5070088;28;20180;-91
2021/08/29 08:13:57;;;;;;;8.07;3.17;;;19.30;68.70;;;;;;5082541;28;20201;-93
2021/08/29 08:16:23;;;;;;;6.80;2.90;;;19.00;69.10;;;;;;5077112;28;20175;-92
2021/08/29 08:18:48;;;;;;;13.07;3.23;;;19.00;69.10;;;;;;5071903;28;20172;-88
2021/08/29 08:21:14;;;;;;;9.20;3.80;;;19.00;69.30;;;;;;5071997;28;20277;-90
2021/08/29 08:23:40;;;;;;;8.20;3.80;;;19.20;68.50;;;;;;5077508;28;20203;-87
2021/08/29 08:26:07;;;;;;;6.40;2.92;;;19.10;68.60;;;;;;5073688;28;20176;-87
2021/08/29 08:28:33;;;;;;;8.07;2.45;;;19.00;68.80;;;;;;5070835;28;20177;-89
2021/08/29 08:30:59;;;;;;;9.23;4.35;;;18.90;68.00;;;;;;5070960;28;20577;-88
2021/08/29 08:33:25;;;;;;;6.17;3.03;;;19.00;68.00;;;;;;5072266;28;20201;-88
2021/08/29 08:35:50;;;;;;;9.73;4.23;;;19.30;68.10;;;;;;5072094;28;20867;-88
2021/08/29 08:38:16;;;;;;;9.73;3.50;;;19.30;68.00;;;;;;5077661;28;20200;-89
2021/08/29 08:40:43;;;;;;;8.00;2.87;;;19.30;67.40;;;;;;5073059;28;20258;-88
2021/08/29 08:43:10;;;;;;;6.10;2.83;;;19.40;67.10;;;;;;5072705;28;20201;-88
2021/08/29 08:45:37;;;;;;;15.07;3.30;;;19.40;66.20;;;;;;5071863;28;20184;-88
2021/08/29 08:48:04;;;;;;;6.60;3.47;;;19.50;66.40;;;;;;5071099;28;20191;-89
2021/08/29 08:50:34;;;;;;;5.30;2.47;;;19.50;65.80;;;;;;5071780;28;20592;-89
2021/08/29 08:53:03;;;;;;;6.50;3.45;;;19.30;65.70;;;;;;5056708;28;20235;-89
2021/08/29 08:55:29;;;;;;;7.70;3.05;;;19.40;65.90;;;;;;5056571;28;20644;-87
2021/08/29 08:57:56;;;;;;;6.97;2.55;;;19.30;65.70;;;;;;5053691;28;20221;-91
2021/08/29 09:00:24;;;;;;;9.60;3.00;;;19.30;65.50;;;;;;5058933;28;20303;-90
2021/08/29 09:02:50;;;;;;;11.85;3.78;;;19.30;65.70;;;;;;5059695;28;20201;-90
2021/08/29 09:05:20;;;;;;;5.90;2.90;;;19.30;65.60;;;;;;5060030;28;20189;-90
2021/08/29 09:07:46;;;;;;;13.88;2.95;;;19.30;65.70;;;;;;5060328;28;20200;-90
2021/08/29 09:10:18;;;;;;;5.53;3.03;;;19.30;65.80;;;;;;5058554;28;20181;-90
2021/08/29 09:13:09;;;;;;;5.72;2.83;;;19.60;65.20;;;;;;5058815;28;20220;-90
2021/08/29 09:15:35;;;;;;;8.38;2.88;;;19.80;64.50;;;;;;5059785;28;20519;-90
2021/08/29 09:18:01;;;;;;;12.13;2.67;;;20.00;63.90;;;;;;5059062;28;20180;-85
2021/08/29 09:20:28;;;;;;;9.00;2.90;;;20.20;62.80;;;;;;5059990;28;20452;-85
2021/08/29 09:23:03;;;;;;;8.50;3.65;;;20.20;62.70;;;;;;5061840;28;20518;-85
2021/08/29 09:25:31;;;;;;;5.82;2.67;;;20.40;62.50;;;;;;5059115;28;20587;-85
2021/08/29 09:28:00;;;;;;;12.50;3.28;;;20.50;62.60;;;;;;5060933;28;20188;-84
2021/08/29 09:30:29;;;;;;;8.20;2.78;;;20.50;62.10;;;;;;5060164;28;20648;-84
2021/08/29 09:32:57;;;;;;;7.47;2.87;;;20.60;61.50;;;;;;5039912;28;20220;-85
2021/08/29 09:35:27;;;;;;;6.65;2.78;;;20.70;61.40;;;;;;5042662;28;20428;-85
2021/08/29 09:37:54;;;;;;;4.97;3.35;;;20.50;61.50;;;;;;5052991;28;20181;-85
2021/08/29 09:40:22;;;;;;;4.03;2.42;;;20.40;61.20;;;;;;5062766;28;20603;-85
2021/08/29 09:42:50;;;;;;;5.57;3.03;;;20.50;61.20;;;;;;5059307;28;20255;-85
2021/08/29 09:45:24;;;;;;;9.40;2.75;;;20.60;61.00;;;;;;5058928;28;20200;-85
2021/08/29 09:47:50;;;;;;;6.50;3.15;;;20.50;61.80;;;;;;5058879;28;20251;-86
2021/08/29 09:50:20;;;;;;;7.70;3.00;;;20.50;61.10;;;;;;5058784;28;20262;-85
2021/08/29 09:52:46;;;;;;;3.97;2.50;;;20.50;61.40;;;;;;5061462;28;20205;-85
2021/08/29 09:55:12;;;;;;;9.93;3.03;;;20.50;61.60;;;;;;5060364;28;20235;-86
2021/08/29 09:57:38;;;;;;;4.90;2.65;;;20.70;61.70;;;;;;5061872;28;20255;-85
2021/08/29 10:00:08;;;;;;;5.82;2.83;;;20.80;61.30;;;;;;5061607;28;20208;-84
2021/08/29 10:02:34;;;;;;;6.50;3.50;;;20.80;61.10;;;;;;5057937;28;20197;-85
2021/08/29 10:05:16;;;;;;;11.20;2.47;;;20.60;59.90;;;;;;5058937;28;20608;-85
2021/08/29 10:08:09;;;;;;;4.00;2.33;;;20.50;60.40;;;;;;5057948;28;20993;-85
2021/08/29 10:10:40;;;;;;;8.60;2.42;;;20.60;60.80;;;;;;5058960;28;20174;-84
2021/08/29 10:13:07;;;;;;;5.47;2.75;;;20.60;60.40;;;;;;5058640;28;20208;-86
2021/08/29 10:15:37;;;;;;;7.15;2.58;;;20.50;60.10;;;;;;5058854;28;20181;-86
2021/08/29 10:18:03;;;;;;;3.30;2.38;;;20.50;59.80;;;;;;5061023;28;20181;-86
2021/08/29 10:20:34;;;;;;;6.90;2.90;;;20.30;60.50;;;;;;5059643;28;20706;-86
2021/08/29 10:23:00;;;;;;;11.35;4.05;;;20.50;60.80;;;;;;5062573;28;20216;-86
2021/08/29 10:25:28;;;;;;;4.97;2.80;;;20.50;60.60;;;;;;5061454;28;20173;-86
2021/08/29 10:28:04;;;;;;;5.80;2.65;;;20.40;60.30;;;;;;5059599;28;20427;-86
2021/08/29 10:30:31;;;;;;;5.25;2.58;;;20.20;60.60;;;;;;5061318;28;20690;-86
2021/08/29 10:33:02;;;;;;;5.80;3.10;;;20.20;60.80;;;;;;5060418;28;20217;-86
2021/08/29 10:35:28;;;;;;;9.85;2.88;;;20.40;60.60;;;;;;5061460;28;20550;-86
2021/08/29 10:37:55;;;;;;;8.15;3.40;;;20.30;60.80;;;;;;5060351;28;20192;-87
2021/08/29 10:40:22;;;;;;;4.60;3.15;;;20.30;60.70;;;;;;5059563;28;20222;-86
2021/08/29 10:42:48;;;;;;;5.45;2.90;;;20.30;61.50;;;;;;5060186;28;20197;-86
2021/08/29 10:45:14;;;;;;;7.40;2.50;;;20.30;61.90;;;;;;5059561;28;20192;-86
2021/08/29 10:47:43;;;;;;;5.40;2.90;;;20.30;61.60;;;;;;5060180;28;20195;-86
2021/08/29 10:50:14;;;;;;;8.13;3.08;;;20.40;61.70;;;;;;5060583;28;20419;-86
2021/08/29 10:52:40;;;;;;;5.57;2.85;;;20.00;62.40;;;;;;5059851;28;20200;-86
2021/08/29 10:55:08;;;;;;;8.65;3.00;;;19.90;63.10;;;;;;5063124;28;20173;-86
2021/08/29 10:57:37;;;;;;;7.35;2.50;;;19.90;63.70;;;;;;5060352;28;20238;-87
2021/08/29 11:00:10;;;;;;;11.05;3.50;;;19.80;64.10;;;;;;5067206;28;20231;-85
2021/08/29 11:02:47;;;;;;;5.72;3.00;;;19.70;64.70;;;;;;5072453;28;20189;-85
2021/08/29 11:05:37;;;;;;;12.23;3.63;;;19.70;64.70;;;;;;5077406;28;20247;-85
2021/08/29 11:08:32;;;;;;;7.47;3.20;;;19.70;64.40;;;;;;5076527;28;20170;-86
2021/08/29 11:10:58;;;;;;;7.82;2.65;;;19.80;64.40;;;;;;5072234;28;20177;-86
2021/08/29 11:13:31;;;;;;;11.73;3.33;;;19.80;64.70;;;;;;5075930;28;20205;-85
2021/08/29 11:16:12;;;;;;;7.57;3.08;;;19.60;65.40;;;;;;5076650;28;20441;-85
2021/08/29 11:19:00;;;;;;;15.13;3.60;;;19.50;66.20;;;;;;5076932;28;20180;-85
2021/08/29 11:21:35;;;;;;;3.88;2.50;;;19.50;66.80;;;;;;5076592;28;20209;-86
2021/08/29 11:24:04;;;;;;;6.22;3.08;;;19.50;66.00;;;;;;5076441;28;20208;-85
2021/08/29 11:26:40;;;;;;;10.52;3.00;;;19.40;65.70;;;;;;5076134;28;20165;-85
2021/08/29 11:29:41;;;;;;;3.30;3.03;;;19.50;66.10;;;;;;5076387;28;20172;-85
2021/08/29 11:32:09;;;;;;;14.52;3.30;;;19.40;66.50;;;;;;5074281;28;20205;-85
2021/08/29 11:34:36;;;;;;;7.95;2.70;;;19.40;67.60;;;;;;5075910;28;20173;-85
2021/08/29 11:37:22;;;;;;;15.32;3.58;;;19.20;67.20;;;;;;5075862;28;20195;-85
2021/08/29 11:40:06;;;;;;;8.27;3.67;;;19.20;67.50;;;;;;5065028;28;20279;-86
2021/08/29 11:42:31;;;;;;;9.38;3.33;;;19.20;68.20;;;;;;5068493;28;20203;-85
2021/08/29 11:44:58;;;;;;;21.17;3.43;;;19.20;69.30;;;;;;5076471;28;20161;-85
2021/08/29 11:47:25;;;;;;;5.75;3.25;;;19.30;70.40;;;;;;5070347;28;20431;-85
2021/08/29 11:49:56;;;;;;;10.10;3.58;;;19.40;71.10;;;;;;5056870;28;20621;-86
2021/08/29 11:52:28;;;;;;;11.10;4.20;;;19.30;72.10;;;;;;5055597;28;20203;-86
2021/08/29 11:55:12;;;;;;;6.60;3.47;;;18.90;72.10;;;;;;5056523;28;20181;-87
2021/08/29 11:57:49;;;;;;;8.75;3.50;;;18.90;72.40;;;;;;5056310;28;20179;-86
2021/08/29 12:00:17;;;;;;;8.10;3.80;;;18.80;72.70;;;;;;5056268;28;20581;-86
2021/08/29 12:02:43;;;;;;;13.90;3.97;;;18.80;73.00;;;;;;5058178;28;20216;-86
2021/08/29 12:05:14;;;;;;;5.80;3.53;;;18.60;73.30;;;;;;5056821;28;20183;-84
2021/08/29 12:07:49;;;;;;;7.40;3.00;;;18.70;73.50;;;;;;5056603;28;20176;-87
2021/08/29 12:10:17;;;;;;;7.80;3.67;;;18.80;73.30;;;;;;5058133;28;20225;-85
2021/08/29 12:12:46;;;;;;;16.77;7.22;;;19.00;72.80;;;;;;5057251;28;20204;-87
2021/08/29 12:15:13;;;;;;;8.48;3.28;;;19.00;72.60;;;;;;5058422;28;20178;-85
2021/08/29 12:17:40;;;;;;;8.43;2.83;;;19.20;72.10;;;;;;5043566;28;20201;-85
2021/08/29 12:20:08;;;;;;;6.55;2.95;;;19.00;72.10;;;;;;5038868;28;20252;-85
2021/08/29 12:22:38;;;;;;;7.35;3.00;;;19.20;72.20;;;;;;5038801;28;20208;-85
2021/08/29 12:25:05;;;;;;;4.28;3.03;;;19.20;72.80;;;;;;5046325;28;20272;-84
2021/08/29 12:27:30;;;;;;;15.90;4.35;;;19.10;74.10;;;;;;5054238;28;20265;-84
2021/08/29 12:29:59;;;;;;;5.97;4.03;;;19.00;75.20;;;;;;5052131;28;20209;-84
2021/08/29 12:32:27;;;;;;;5.25;2.58;;;19.00;75.80;;;;;;5038387;28;20502;-86
2021/08/29 12:34:55;;;;;;;10.38;3.55;;;18.90;75.40;;;;;;5040509;28;20188;-85
2021/08/29 12:37:23;;;;;;;9.10;4.10;;;18.80;75.10;;;;;;5049624;28;20272;-85
2021/08/29 12:39:56;;;;;;;13.55;3.65;;;18.90;74.60;;;;;;5064351;28;20222;-85
2021/08/29 12:42:24;;;;;;;11.43;2.70;;;18.90;74.60;;;;;;5071355;28;20279;-85
2021/08/29 12:44:51;;;;;;;8.77;3.65;;;18.70;72.60;;;;;;5071668;28;20181;-85
2021/08/29 12:47:18;;;;;;;6.35;3.38;;;18.70;72.20;;;;;;5072768;28;20169;-85
2021/08/29 12:49:44;;;;;;;10.40;4.00;;;18.80;72.10;;;;;;5070976;28;20246;-85
2021/08/29 12:52:27;;;;;;;6.85;2.70;;;18.90;72.40;;;;;;5073026;28;20206;-85
2021/08/29 12:54:54;;;;;;;9.38;3.38;;;18.80;71.50;;;;;;5071073;28;20244;-86
2021/08/29 12:57:25;;;;;;;8.90;3.40;;;18.70;72.10;;;;;;5069047;28;20205;-85